Time;durP1;ratioP1;P1;durP2;ratioP2;P2;SDS_P1;SDS_P2;PMS_P1;PMS_P2;Temp;Humidity;BMP_temperature;BMP_pressure;BME280_temperature;BME280_humidity;BME280_pressure;Samples;Min_cycle;Max_cycle;Signal;HPM_P1;HPM_P2
2022/07/05 00:01:59;;;;;;;1.52;0.50;;;23.10;60.90;;;;;;5033732;28;20053;-59
2022/07/05 00:04:25;;;;;;;1.10;0.50;;;23.10;60.90;;;;;;5034844;28;20042;-59
2022/07/05 00:09:34;;;;;;;0.45;0.30;;;23.10;60.90;;;;;;5034787;28;20041;-59
2022/07/05 00:12:00;;;;;;;1.33;0.50;;;23.10;60.90;;;;;;5034321;28;20064;-59
2022/07/05 00:14:26;;;;;;;1.85;0.60;;;23.10;60.90;;;;;;5033707;28;20128;-59
2022/07/05 00:16:51;;;;;;;0.52;0.38;;;23.10;61.00;;;;;;5033943;28;20049;-59
2022/07/05 00:19:17;;;;;;;1.45;0.50;;;23.10;61.00;;;;;;5034524;28;20153;-59
2022/07/05 00:21:42;;;;;;;3.83;0.50;;;23.10;61.00;;;;;;5033037;28;20099;-59
2022/07/05 00:24:08;;;;;;;2.38;0.50;;;23.10;61.00;;;;;;5034388;28;20045;-59
2022/07/05 00:26:33;;;;;;;1.63;0.57;;;23.10;61.00;;;;;;5034029;28;20057;-58
2022/07/05 00:28:59;;;;;;;1.65;0.60;;;23.00;60.90;;;;;;5033165;28;20064;-58
2022/07/05 00:31:24;;;;;;;1.00;0.40;;;23.10;61.00;;;;;;5034066;28;20457;-58
2022/07/05 00:33:50;;;;;;;0.65;0.43;;;23.10;61.00;;;;;;5033941;28;20545;-58
2022/07/05 00:36:15;;;;;;;1.65;0.60;;;23.00;60.90;;;;;;5033016;28;20557;-58
2022/07/05 00:38:41;;;;;;;1.48;0.52;;;23.00;61.00;;;;;;5033808;28;20397;-59
2022/07/05 00:41:06;;;;;;;1.77;0.60;;;23.00;61.00;;;;;;5034331;28;20041;-58
2022/07/05 00:43:32;;;;;;;1.40;0.50;;;23.00;61.00;;;;;;5033077;28;20053;-58
2022/07/05 00:45:57;;;;;;;1.17;0.55;;;23.00;61.00;;;;;;5033432;28;20047;-58
2022/07/05 00:48:23;;;;;;;1.38;0.50;;;23.00;61.00;;;;;;5033502;28;20131;-58
2022/07/05 00:50:50;;;;;;;0.80;0.40;;;23.00;61.00;;;;;;5032824;28;20081;-58
2022/07/05 00:53:15;;;;;;;1.80;0.60;;;23.00;61.00;;;;;;5033512;28;20123;-59
2022/07/05 00:55:41;;;;;;;0.77;0.50;;;23.00;61.00;;;;;;5033231;28;22366;-58
2022/07/05 00:58:06;;;;;;;2.22;0.85;;;23.00;61.00;;;;;;5031937;28;20045;-58
2022/07/05 01:00:32;;;;;;;1.08;0.52;;;23.00;61.10;;;;;;5033546;28;20034;-59
2022/07/05 01:02:57;;;;;;;2.28;0.50;;;23.00;61.00;;;;;;5033311;28;20094;-59
2022/07/05 01:05:23;;;;;;;1.33;0.50;;;23.00;61.00;;;;;;5032635;28;20485;-59
2022/07/05 01:07:48;;;;;;;3.10;0.70;;;23.00;61.00;;;;;;5033237;28;20498;-58
2022/07/05 01:10:14;;;;;;;0.52;0.40;;;23.00;61.10;;;;;;5031319;28;20473;-59
2022/07/05 01:12:40;;;;;;;1.15;0.45;;;23.00;61.00;;;;;;5033348;28;20481;-58
2022/07/05 01:15:06;;;;;;;2.25;0.65;;;23.00;61.00;;;;;;5033245;28;20057;-59
2022/07/05 01:17:39;;;;;;;1.15;0.57;;;22.90;61.00;;;;;;5032392;28;20052;-59
2022/07/05 01:20:05;;;;;;;1.50;0.50;;;23.00;61.10;;;;;;5032057;28;20037;-59
2022/07/05 01:22:51;;;;;;;1.92;0.57;;;22.90;61.00;;;;;;5033071;28;20053;-59
2022/07/05 01:25:18;;;;;;;1.55;0.60;;;23.00;61.00;;;;;;5032321;28;20043;-58
2022/07/05 01:27:43;;;;;;;1.00;0.50;;;22.90;61.00;;;;;;5032458;28;20057;-58
2022/07/05 01:30:10;;;;;;;2.15;0.60;;;22.90;61.00;;;;;;5031930;28;20072;-58
2022/07/05 01:32:36;;;;;;;2.28;0.60;;;22.90;61.00;;;;;;5031862;28;20049;-58
2022/07/05 01:35:01;;;;;;;1.83;0.70;;;22.90;61.00;;;;;;5031639;28;20153;-58
2022/07/05 01:37:28;;;;;;;1.95;0.68;;;22.90;61.00;;;;;;5032954;28;20073;-59
2022/07/05 01:39:53;;;;;;;1.40;0.73;;;22.90;61.10;;;;;;5030742;28;20034;-59
2022/07/05 01:42:19;;;;;;;1.30;0.50;;;22.90;61.00;;;;;;5048046;28;20049;-58
2022/07/05 01:44:44;;;;;;;0.95;0.60;;;22.90;61.10;;;;;;5032142;28;20042;-58
2022/07/05 01:47:10;;;;;;;2.65;0.80;;;22.90;61.10;;;;;;5032123;28;20068;-59
2022/07/05 01:49:41;;;;;;;2.05;0.50;;;22.90;61.10;;;;;;5031607;28;20486;-58
2022/07/05 01:52:09;;;;;;;2.88;0.95;;;22.90;61.70;;;;;;5031430;28;20073;-58
2022/07/05 01:54:35;;;;;;;2.10;0.80;;;22.90;61.10;;;;;;5032198;28;20087;-59
2022/07/05 01:57:00;;;;;;;2.10;0.50;;;22.90;61.10;;;;;;5032227;28;20081;-58
2022/07/05 01:59:27;;;;;;;1.45;0.80;;;22.80;61.10;;;;;;5030413;28;20045;-58
2022/07/05 02:01:53;;;;;;;0.95;0.50;;;22.90;61.20;;;;;;5031109;28;20025;-58
2022/07/05 02:04:18;;;;;;;1.05;0.60;;;22.80;61.10;;;;;;5031843;28;20142;-59
2022/07/05 02:06:45;;;;;;;1.05;0.50;;;22.80;61.80;;;;;;5031398;28;20128;-59
2022/07/05 02:09:11;;;;;;;1.35;0.60;;;22.80;61.20;;;;;;5031041;28;20069;-58
2022/07/05 02:11:36;;;;;;;1.40;0.50;;;22.80;61.20;;;;;;5032603;28;20069;-58
2022/07/05 02:14:02;;;;;;;2.33;0.60;;;22.80;61.20;;;;;;5031300;28;20041;-58
2022/07/05 02:16:28;;;;;;;1.50;0.60;;;22.80;61.20;;;;;;5032462;28;20091;-59
2022/07/05 02:18:53;;;;;;;1.52;0.70;;;22.80;61.20;;;;;;5032291;28;20385;-59
2022/07/05 02:21:19;;;;;;;1.23;0.70;;;22.80;61.20;;;;;;5031804;28;20091;-59
2022/07/05 02:23:45;;;;;;;1.35;0.60;;;22.80;61.20;;;;;;5032265;28;20345;-58
2022/07/05 02:26:10;;;;;;;1.08;0.60;;;22.80;61.20;;;;;;5032097;28;20084;-59
2022/07/05 02:28:36;;;;;;;1.52;0.47;;;22.80;61.20;;;;;;5031716;28;20052;-58
2022/07/05 02:31:01;;;;;;;1.63;0.50;;;22.80;61.30;;;;;;5032181;28;20061;-58
2022/07/05 02:33:27;;;;;;;1.60;0.75;;;22.80;61.30;;;;;;5032450;28;20046;-58
2022/07/05 02:35:52;;;;;;;0.93;0.57;;;22.80;61.30;;;;;;5031168;28;20076;-59
2022/07/05 02:38:18;;;;;;;1.60;0.70;;;22.80;61.20;;;;;;5030934;28;20038;-58
2022/07/05 02:40:43;;;;;;;1.38;0.60;;;22.80;61.30;;;;;;5032024;28;20107;-59
2022/07/05 02:43:09;;;;;;;1.83;0.57;;;22.80;61.20;;;;;;5031673;28;20041;-58
2022/07/05 02:45:34;;;;;;;2.08;0.68;;;22.70;61.20;;;;;;5031782;28;20057;-59
2022/07/05 02:48:00;;;;;;;1.67;0.70;;;22.70;61.20;;;;;;5031815;28;20064;-58
2022/07/05 02:50:25;;;;;;;1.92;0.70;;;22.70;61.20;;;;;;5031605;28;20041;-58
2022/07/05 02:52:51;;;;;;;1.25;0.57;;;22.70;61.20;;;;;;5031803;28;20073;-59
2022/07/05 02:55:17;;;;;;;2.25;0.70;;;22.70;61.30;;;;;;5032271;28;20113;-59
2022/07/05 02:57:42;;;;;;;2.42;0.60;;;22.70;61.30;;;;;;5030859;28;20042;-59
2022/07/05 03:00:08;;;;;;;1.25;0.60;;;22.70;61.30;;;;;;5030505;28;20041;-59
2022/07/05 03:02:34;;;;;;;1.80;0.80;;;22.70;61.30;;;;;;5032115;28;20044;-59
2022/07/05 03:04:59;;;;;;;1.30;0.70;;;22.70;61.30;;;;;;5063073;28;20041;-59
2022/07/05 03:07:25;;;;;;;1.13;0.55;;;22.70;61.30;;;;;;5032170;28;20046;-58
2022/07/05 03:09:50;;;;;;;1.15;0.77;;;22.70;61.30;;;;;;5030502;28;20038;-59
2022/07/05 03:12:16;;;;;;;1.75;0.70;;;22.70;61.30;;;;;;5035659;28;20114;-59
2022/07/05 03:14:41;;;;;;;1.75;0.63;;;22.70;61.30;;;;;;5035058;28;20124;-59
2022/07/05 03:17:07;;;;;;;1.38;0.60;;;22.70;61.30;;;;;;5034918;28;20207;-59
2022/07/05 03:19:33;;;;;;;1.58;0.47;;;22.70;61.30;;;;;;5035682;28;20044;-59
2022/07/05 03:21:58;;;;;;;1.83;0.60;;;22.70;61.30;;;;;;5034615;28;20451;-59
2022/07/05 03:24:24;;;;;;;1.60;0.70;;;22.70;61.40;;;;;;5034145;28;20052;-59
2022/07/05 03:26:49;;;;;;;1.67;0.70;;;22.70;61.40;;;;;;5034676;28;20049;-59
2022/07/05 03:29:15;;;;;;;2.08;0.70;;;22.70;61.40;;;;;;5035244;28;20072;-59
2022/07/05 03:31:40;;;;;;;1.75;0.80;;;22.70;61.40;;;;;;5034443;28;20124;-59
2022/07/05 03:34:07;;;;;;;2.45;0.70;;;22.70;61.40;;;;;;5034923;28;20576;-59
2022/07/05 03:36:32;;;;;;;1.58;0.60;;;22.60;61.30;;;;;;5035127;28;20129;-59
2022/07/05 03:38:58;;;;;;;1.80;0.82;;;22.60;61.30;;;;;;5032812;28;20041;-59
2022/07/05 03:41:24;;;;;;;1.88;0.88;;;22.70;61.40;;;;;;5035038;28;20071;-58
2022/07/05 03:43:49;;;;;;;1.60;0.70;;;22.60;61.40;;;;;;5034787;28;20029;-59
2022/07/05 03:46:15;;;;;;;1.00;0.60;;;22.70;61.50;;;;;;5034171;28;20441;-59
2022/07/05 03:48:40;;;;;;;1.60;0.60;;;22.60;61.40;;;;;;5034744;28;20055;-59
2022/07/05 03:51:06;;;;;;;1.25;0.70;;;22.60;61.50;;;;;;5035106;28;20076;-60
2022/07/05 03:53:31;;;;;;;1.60;0.80;;;22.60;61.50;;;;;;5034024;28;20087;-60
2022/07/05 03:55:57;;;;;;;2.08;0.70;;;22.60;61.50;;;;;;5034605;28;20046;-59
2022/07/05 03:58:22;;;;;;;1.02;0.60;;;22.60;61.50;;;;;;5034523;28;20052;-59
2022/07/05 04:00:48;;;;;;;2.15;0.77;;;22.60;61.50;;;;;;5033454;28;20041;-59
2022/07/05 04:03:13;;;;;;;1.10;0.70;;;22.60;61.50;;;;;;5034626;28;20048;-59
2022/07/05 04:05:39;;;;;;;1.85;0.50;;;22.60;61.40;;;;;;5034337;28;20042;-59
2022/07/05 04:08:04;;;;;;;1.13;0.60;;;22.60;61.40;;;;;;5033723;28;20104;-59
2022/07/05 04:10:30;;;;;;;1.98;0.75;;;22.60;61.50;;;;;;5034291;28;20076;-59
2022/07/05 04:12:55;;;;;;;0.85;0.50;;;22.60;61.50;;;;;;5034276;28;20083;-59
2022/07/05 04:15:21;;;;;;;2.60;0.70;;;22.60;61.50;;;;;;5033833;28;20132;-60
2022/07/05 04:17:53;;;;;;;1.00;0.63;;;22.60;61.50;;;;;;5034087;28;20053;-60
2022/07/05 04:20:20;;;;;;;1.55;0.55;;;22.60;61.50;;;;;;5033937;28;20087;-60
2022/07/05 04:22:46;;;;;;;2.13;0.70;;;22.60;61.50;;;;;;5032976;28;20049;-59
2022/07/05 04:25:17;;;;;;;1.33;0.60;;;22.60;61.50;;;;;;5034270;28;20041;-59
2022/07/05 04:27:43;;;;;;;1.85;0.98;;;22.60;61.50;;;;;;5032877;28;20058;-59
2022/07/05 04:30:10;;;;;;;1.55;0.75;;;22.60;61.50;;;;;;5034245;28;20072;-59
2022/07/05 04:32:35;;;;;;;1.00;0.60;;;22.60;61.50;;;;;;5034097;28;20048;-60
2022/07/05 04:35:01;;;;;;;1.13;0.63;;;22.60;61.50;;;;;;5032998;28;20046;-60
2022/07/05 04:37:27;;;;;;;1.38;0.60;;;22.60;61.50;;;;;;5034128;28;20400;-59
2022/07/05 04:39:52;;;;;;;1.70;0.80;;;22.60;61.50;;;;;;5033561;28;20048;-60
2022/07/05 04:42:18;;;;;;;1.55;0.60;;;22.60;61.50;;;;;;5033243;28;20436;-60
2022/07/05 04:44:43;;;;;;;1.80;0.70;;;22.60;61.60;;;;;;5033503;28;20493;-60
2022/07/05 04:47:09;;;;;;;1.85;0.80;;;22.60;61.60;;;;;;5034001;28;20045;-59
2022/07/05 04:49:34;;;;;;;1.95;0.98;;;22.70;61.60;;;;;;5032056;28;20401;-60
2022/07/05 04:52:00;;;;;;;1.75;0.70;;;22.60;61.60;;;;;;5033660;28;20107;-59
2022/07/05 04:54:26;;;;;;;1.15;0.70;;;22.70;61.60;;;;;;5033899;28;20091;-59
2022/07/05 04:56:51;;;;;;;1.00;0.70;;;22.70;61.60;;;;;;5032397;28;20045;-59
2022/07/05 04:59:17;;;;;;;3.25;0.65;;;22.70;61.60;;;;;;5033735;28;20404;-59
2022/07/05 05:01:42;;;;;;;1.95;0.80;;;22.70;61.60;;;;;;5033472;28;20473;-60
2022/07/05 05:04:08;;;;;;;2.13;0.70;;;22.70;61.60;;;;;;5032499;28;20060;-60
2022/07/05 05:06:33;;;;;;;1.50;0.80;;;22.70;61.60;;;;;;5033364;28;20103;-59
2022/07/05 05:08:59;;;;;;;2.38;0.75;;;22.70;61.50;;;;;;5032956;28;20056;-59
2022/07/05 05:11:24;;;;;;;1.33;0.70;;;22.70;61.50;;;;;;5032809;28;20389;-59
2022/07/05 05:13:50;;;;;;;1.35;0.63;;;22.70;61.50;;;;;;5033260;28;20111;-60
2022/07/05 05:16:15;;;;;;;1.05;0.60;;;22.70;61.50;;;;;;5033016;28;20102;-59
2022/07/05 05:18:41;;;;;;;1.55;0.93;;;22.70;61.50;;;;;;5032693;28;20132;-60
2022/07/05 05:21:07;;;;;;;1.13;0.68;;;22.70;61.50;;;;;;5033211;28;20119;-59
2022/07/05 05:23:32;;;;;;;1.75;0.95;;;22.80;61.60;;;;;;5032642;28;20045;-59
2022/07/05 05:25:58;;;;;;;1.73;0.63;;;22.80;61.60;;;;;;5032415;28;20049;-60
2022/07/05 05:28:23;;;;;;;2.35;0.90;;;22.80;61.60;;;;;;5032907;28;20045;-59
2022/07/05 05:30:49;;;;;;;1.35;0.73;;;22.80;61.60;;;;;;5032052;28;20044;-59
2022/07/05 05:33:14;;;;;;;1.20;0.60;;;22.80;61.50;;;;;;5032862;28;20042;-59
2022/07/05 05:35:40;;;;;;;2.15;0.70;;;22.80;62.10;;;;;;5032945;28;20474;-59
2022/07/05 05:38:05;;;;;;;1.80;0.70;;;22.80;61.50;;;;;;5032100;28;20072;-59
2022/07/05 05:40:32;;;;;;;1.20;0.70;;;22.80;61.60;;;;;;5032645;28;20084;-59
2022/07/05 05:42:58;;;;;;;1.42;0.68;;;22.80;61.50;;;;;;5032473;28;20490;-59
2022/07/05 05:45:24;;;;;;;1.25;0.70;;;22.80;61.60;;;;;;5032052;28;20120;-59
2022/07/05 05:47:54;;;;;;;1.67;0.95;;;22.80;61.60;;;;;;5032456;28;20465;-60
2022/07/05 05:50:24;;;;;;;1.65;0.70;;;22.80;61.60;;;;;;5033072;28;20051;-60
2022/07/05 05:52:50;;;;;;;2.80;0.80;;;22.80;61.60;;;;;;5031770;28;20049;-60
2022/07/05 05:55:15;;;;;;;1.63;0.60;;;22.80;61.60;;;;;;5032604;28;20048;-60
2022/07/05 05:57:41;;;;;;;1.40;0.65;;;22.90;61.60;;;;;;5032457;28;20053;-60
2022/07/05 06:00:07;;;;;;;1.90;0.90;;;22.90;62.30;;;;;;5031783;28;20113;-59
2022/07/05 06:02:33;;;;;;;1.52;0.60;;;22.90;61.70;;;;;;5032863;28;20096;-59
2022/07/05 06:04:58;;;;;;;1.88;0.70;;;22.90;61.70;;;;;;5032189;28;20405;-59
2022/07/05 06:07:24;;;;;;;2.70;0.73;;;22.90;61.70;;;;;;5031820;28;20045;-60
2022/07/05 06:09:50;;;;;;;1.45;0.70;;;22.90;61.70;;;;;;5032365;28;20049;-59
2022/07/05 06:12:15;;;;;;;2.20;0.80;;;22.90;61.80;;;;;;5032662;28;20037;-59
2022/07/05 06:14:41;;;;;;;1.45;0.70;;;22.90;61.80;;;;;;5031448;28;20132;-59
2022/07/05 06:17:06;;;;;;;4.30;1.33;;;22.90;61.80;;;;;;5032441;28;20133;-59
2022/07/05 06:19:32;;;;;;;1.85;0.65;;;23.00;61.90;;;;;;5032725;28;20072;-59
2022/07/05 06:21:57;;;;;;;1.63;0.75;;;23.00;61.90;;;;;;5031307;28;20128;-59
2022/07/05 06:24:23;;;;;;;1.20;0.65;;;23.00;61.90;;;;;;5032157;28;20041;-59
2022/07/05 06:26:48;;;;;;;2.03;0.80;;;23.00;61.90;;;;;;5030967;28;20057;-59
2022/07/05 06:29:14;;;;;;;2.83;1.08;;;23.00;61.90;;;;;;5032026;28;20087;-59
2022/07/05 06:31:39;;;;;;;2.90;0.60;;;23.00;61.90;;;;;;5031385;28;20144;-59
2022/07/05 06:34:05;;;;;;;2.10;0.85;;;23.00;61.90;;;;;;5031220;28;20402;-59
2022/07/05 06:36:30;;;;;;;7.07;1.10;;;23.00;61.90;;;;;;5032345;28;20068;-59
2022/07/05 06:38:56;;;;;;;2.97;0.93;;;23.00;61.90;;;;;;5031961;28;20050;-59
2022/07/05 06:41:21;;;;;;;1.83;0.70;;;23.00;61.90;;;;;;5031209;28;20038;-59
2022/07/05 06:43:47;;;;;;;4.38;0.85;;;23.00;61.90;;;;;;5031762;28;20180;-59
2022/07/05 06:46:12;;;;;;;2.67;0.90;;;23.00;61.70;;;;;;5034784;28;20099;-60
2022/07/05 06:48:39;;;;;;;5.30;1.20;;;23.00;61.50;;;;;;5035345;28;20042;-60
2022/07/05 06:51:04;;;;;;;3.95;0.75;;;23.00;61.50;;;;;;5035534;28;20401;-60
2022/07/05 06:53:30;;;;;;;2.42;0.90;;;23.00;61.40;;;;;;5034530;28;20055;-60
2022/07/05 06:55:55;;;;;;;3.45;0.90;;;23.00;62.00;;;;;;5033642;28;20513;-60
2022/07/05 06:58:21;;;;;;;2.45;0.80;;;23.00;61.40;;;;;;5035947;28;20486;-59
2022/07/05 07:00:46;;;;;;;3.13;0.98;;;23.00;61.10;;;;;;5034922;28;20563;-60
2022/07/05 07:03:12;;;;;;;1.88;0.70;;;22.90;61.00;;;;;;5034831;28;20047;-60
2022/07/05 07:05:37;;;;;;;3.78;0.95;;;22.90;60.90;;;;;;5035599;28;20038;-60
2022/07/05 07:10:47;;;;;;;1.88;0.60;;;22.90;60.80;;;;;;5034968;28;20473;-59
2022/07/05 07:13:13;;;;;;;2.42;0.70;;;22.90;60.70;;;;;;5035684;28;20041;-58
2022/07/05 07:15:39;;;;;;;2.13;0.88;;;22.90;60.60;;;;;;5035563;28;20047;-58
2022/07/05 07:18:04;;;;;;;2.58;0.90;;;22.90;60.50;;;;;;5034753;28;20399;-59
2022/07/05 07:20:30;;;;;;;2.17;0.90;;;22.90;60.40;;;;;;5035298;28;20048;-59
2022/07/05 07:22:55;;;;;;;3.30;1.10;;;22.90;60.40;;;;;;5034410;28;20103;-59
2022/07/05 07:25:23;;;;;;;2.65;1.00;;;22.90;60.30;;;;;;5035495;28;20049;-59
2022/07/05 07:27:50;;;;;;;4.10;0.90;;;22.90;60.20;;;;;;5034729;28;20060;-58
2022/07/05 07:30:17;;;;;;;2.40;0.93;;;22.90;60.20;;;;;;5032925;28;20757;-59
2022/07/05 07:32:42;;;;;;;2.63;0.85;;;22.90;60.20;;;;;;5034191;28;20090;-59
2022/07/05 07:35:08;;;;;;;2.28;1.00;;;22.90;60.20;;;;;;5034896;28;20041;-58
2022/07/05 07:37:34;;;;;;;2.65;1.20;;;22.90;60.10;;;;;;5033993;28;20091;-59
2022/07/05 07:40:01;;;;;;;2.50;0.90;;;22.90;60.00;;;;;;5034921;28;20067;-59
2022/07/05 07:42:27;;;;;;;4.30;1.35;;;22.90;60.00;;;;;;5034720;28;20049;-59
2022/07/05 07:44:53;;;;;;;2.05;0.85;;;22.90;59.90;;;;;;5032321;28;20052;-58
2022/07/05 07:47:18;;;;;;;3.53;0.70;;;22.90;59.90;;;;;;5035002;28;20053;-59
2022/07/05 07:49:44;;;;;;;3.97;0.95;;;22.90;59.90;;;;;;5034296;28;20045;-59
2022/07/05 07:52:09;;;;;;;1.85;0.82;;;22.90;59.80;;;;;;5033996;28;20068;-59
2022/07/05 07:54:35;;;;;;;2.85;0.70;;;22.90;59.80;;;;;;5034831;28;20489;-59
2022/07/05 07:57:01;;;;;;;1.88;0.63;;;22.90;59.70;;;;;;5034075;28;20504;-59
2022/07/05 07:59:27;;;;;;;3.35;1.05;;;22.90;59.70;;;;;;5033477;28;20112;-60
2022/07/05 08:01:52;;;;;;;2.75;0.80;;;22.90;59.60;;;;;;5034199;28;20429;-59
2022/07/05 08:04:18;;;;;;;3.30;0.70;;;22.90;59.60;;;;;;5034410;28;20474;-59
2022/07/05 08:06:44;;;;;;;1.95;0.70;;;22.90;59.60;;;;;;5065326;28;20111;-59
2022/07/05 08:09:09;;;;;;;3.33;0.60;;;22.90;59.50;;;;;;5034679;28;20045;-59
2022/07/05 08:11:35;;;;;;;2.33;0.75;;;22.90;59.50;;;;;;5034295;28;20451;-59
2022/07/05 08:14:00;;;;;;;2.95;0.85;;;22.90;59.40;;;;;;5033500;28;20052;-60
2022/07/05 08:16:26;;;;;;;3.80;0.85;;;22.90;59.20;;;;;;5034225;28;20083;-60
2022/07/05 08:21:38;;;;;;;4.35;0.70;;;22.90;59.00;;;;;;5034788;28;20045;-60
2022/07/05 08:24:11;;;;;;;3.28;0.88;;;22.90;59.00;;;;;;5033411;28;20056;-61
2022/07/05 08:26:36;;;;;;;5.85;1.42;;;22.90;58.80;;;;;;5033371;28;20041;-61
2022/07/05 08:29:03;;;;;;;1.90;0.65;;;22.90;58.90;;;;;;5033674;28;20556;-60
2022/07/05 08:31:30;;;;;;;3.83;0.90;;;22.80;58.80;;;;;;5033328;28;20045;-60
2022/07/05 08:33:56;;;;;;;1.65;0.50;;;22.80;58.60;;;;;;5032952;28;20099;-61
2022/07/05 08:36:21;;;;;;;1.83;0.80;;;22.80;58.50;;;;;;5032717;28;20054;-61
2022/07/05 08:38:47;;;;;;;2.92;0.80;;;22.80;58.30;;;;;;5033404;28;20077;-60
2022/07/05 08:41:12;;;;;;;1.17;0.60;;;22.80;58.20;;;;;;5033429;28;20045;-61
2022/07/05 08:43:44;;;;;;;2.05;0.70;;;22.80;58.20;;;;;;5033380;28;20042;-61
2022/07/05 08:46:10;;;;;;;2.92;0.90;;;22.80;58.10;;;;;;5032198;28;20065;-62
2022/07/05 08:48:42;;;;;;;2.05;0.60;;;22.80;58.00;;;;;;5031659;28;20087;-61
2022/07/05 08:51:12;;;;;;;1.77;0.60;;;22.80;57.90;;;;;;5032680;28;20045;-61
2022/07/05 08:53:38;;;;;;;2.20;0.68;;;22.80;57.70;;;;;;5033629;28;20124;-60
2022/07/05 08:56:04;;;;;;;2.75;0.70;;;22.80;57.50;;;;;;5031696;28;20519;-61
2022/07/05 08:58:30;;;;;;;4.07;0.70;;;22.80;57.60;;;;;;5032252;28;20124;-61
2022/07/05 09:00:56;;;;;;;5.20;0.80;;;22.80;57.40;;;;;;5030862;28;20052;-61
2022/07/05 09:03:21;;;;;;;3.40;1.23;;;22.80;57.30;;;;;;5029893;28;20401;-61
2022/07/05 09:05:48;;;;;;;3.92;0.70;;;22.80;57.20;;;;;;5033132;28;20140;-60
2022/07/05 09:08:14;;;;;;;2.55;0.63;;;22.80;57.20;;;;;;5030447;28;20456;-61
2022/07/05 09:10:40;;;;;;;1.80;0.70;;;22.80;57.80;;;;;;5032365;28;20045;-60
2022/07/05 09:13:06;;;;;;;2.13;0.57;;;22.80;56.90;;;;;;5032930;28;20049;-60
2022/07/05 09:15:31;;;;;;;5.15;0.60;;;22.80;56.60;;;;;;5032470;28;20049;-60
2022/07/05 09:17:57;;;;;;;3.00;0.73;;;22.80;56.30;;;;;;5015045;28;20046;-60
2022/07/05 09:20:22;;;;;;;8.32;0.98;;;22.80;56.40;;;;;;5033041;28;20119;-61
2022/07/05 09:22:55;;;;;;;6.07;0.80;;;22.80;56.40;;;;;;5030424;28;20041;-61
2022/07/05 09:25:27;;;;;;;3.60;0.95;;;22.80;56.10;;;;;;5032788;28;20045;-61
2022/07/05 09:27:52;;;;;;;2.13;0.60;;;22.80;56.00;;;;;;5032917;28;20500;-61
2022/07/05 09:30:28;;;;;;;3.78;0.85;;;22.80;55.90;;;;;;5031047;28;20120;-61
2022/07/05 09:33:10;;;;;;;2.33;0.50;;;22.80;55.70;;;;;;5032845;28;20045;-61
2022/07/05 09:35:37;;;;;;;2.70;0.85;;;22.80;55.70;;;;;;5033327;28;20405;-61
2022/07/05 09:38:07;;;;;;;3.30;0.85;;;22.80;55.80;;;;;;5031160;28;20547;-59
2022/07/05 09:40:33;;;;;;;3.75;1.05;;;22.80;55.60;;;;;;5031443;28;20069;-58
2022/07/05 09:43:14;;;;;;;7.07;1.23;;;22.80;55.70;;;;;;5032668;28;20434;-58
2022/07/05 09:45:49;;;;;;;3.67;1.00;;;22.80;55.60;;;;;;5032741;28;20144;-60
2022/07/05 09:48:14;;;;;;;5.45;1.45;;;22.80;55.80;;;;;;5030535;28;20072;-59
2022/07/05 09:50:40;;;;;;;7.00;1.25;;;22.80;55.80;;;;;;5030602;28;20493;-59
2022/07/05 09:53:05;;;;;;;3.30;1.20;;;22.80;56.00;;;;;;5031474;28;20056;-59
2022/07/05 09:55:32;;;;;;;4.15;1.30;;;22.80;56.10;;;;;;5032628;28;20042;-59
2022/07/05 09:57:58;;;;;;;5.15;1.13;;;22.80;56.20;;;;;;5031315;28;20041;-59
2022/07/05 10:00:23;;;;;;;4.70;1.17;;;22.80;56.30;;;;;;5032436;28;20049;-59
2022/07/05 10:02:51;;;;;;;5.72;1.35;;;22.80;56.30;;;;;;5032242;28;20412;-59
2022/07/05 10:05:23;;;;;;;4.47;1.52;;;22.80;56.60;;;;;;5031904;28;20502;-59
2022/07/05 10:07:59;;;;;;;4.70;1.17;;;22.90;56.60;;;;;;5032181;28;20042;-59
2022/07/05 10:10:31;;;;;;;4.63;1.20;;;22.90;56.60;;;;;;5032512;28;20468;-59
2022/07/05 10:13:01;;;;;;;4.90;1.55;;;22.90;56.60;;;;;;5031310;28;20042;-59
2022/07/05 10:15:34;;;;;;;5.32;1.30;;;22.90;56.80;;;;;;5032133;28;20469;-59
2022/07/05 10:18:08;;;;;;;3.90;1.10;;;22.90;56.70;;;;;;5031757;28;20057;-59
2022/07/05 10:20:37;;;;;;;4.18;1.83;;;22.90;57.00;;;;;;5033188;28;20052;-58
2022/07/05 10:23:03;;;;;;;5.72;1.80;;;22.90;57.00;;;;;;5036137;28;20042;-59
2022/07/05 10:25:29;;;;;;;6.65;1.60;;;22.90;57.00;;;;;;5036028;28;20091;-60
2022/07/05 10:27:54;;;;;;;4.70;1.85;;;22.90;57.10;;;;;;5036147;28;20554;-59
2022/07/05 10:30:21;;;;;;;4.57;1.98;;;22.90;57.20;;;;;;5035032;28;20119;-59
2022/07/05 10:32:46;;;;;;;5.18;1.50;;;23.00;57.20;;;;;;5035617;28;20481;-59
2022/07/05 10:35:12;;;;;;;5.00;1.88;;;22.90;57.20;;;;;;5034751;28;20038;-59
2022/07/05 10:37:37;;;;;;;4.68;1.80;;;23.00;57.20;;;;;;5035925;28;20416;-59
2022/07/05 10:40:05;;;;;;;3.95;1.73;;;23.00;57.40;;;;;;5035489;28;20544;-59
2022/07/05 10:42:50;;;;;;;6.53;1.88;;;23.00;57.50;;;;;;5034478;28;20520;-59
2022/07/05 10:45:33;;;;;;;4.85;1.90;;;23.00;57.50;;;;;;5035014;28;20499;-59
2022/07/05 10:48:21;;;;;;;9.05;2.20;;;23.00;57.70;;;;;;5034996;28;20044;-60
2022/07/05 10:50:52;;;;;;;5.35;1.98;;;23.00;57.70;;;;;;5035696;28;20137;-59
2022/07/05 10:53:20;;;;;;;7.43;2.10;;;23.00;57.80;;;;;;5036138;28;20045;-59
2022/07/05 10:55:55;;;;;;;5.53;1.55;;;23.00;57.80;;;;;;5034943;28;20140;-59
2022/07/05 10:58:21;;;;;;;5.03;1.55;;;23.00;57.70;;;;;;5034489;28;20110;-58
2022/07/05 11:00:48;;;;;;;5.55;1.90;;;23.00;57.60;;;;;;5034369;28;20388;-58
2022/07/05 11:03:34;;;;;;;5.30;1.80;;;23.00;57.50;;;;;;5034740;28;20049;-58
2022/07/05 11:06:01;;;;;;;6.43;1.85;;;23.00;57.70;;;;;;5035398;28;20068;-59
2022/07/05 11:08:26;;;;;;;4.82;1.80;;;23.00;57.60;;;;;;5034573;28;20127;-58
2022/07/05 11:11:11;;;;;;;3.90;1.60;;;23.00;57.60;;;;;;5035099;28;20099;-58
2022/07/05 11:13:41;;;;;;;4.13;1.92;;;23.00;57.50;;;;;;5034906;28;20045;-59
2022/07/05 11:16:23;;;;;;;5.10;1.75;;;23.00;57.70;;;;;;5034157;28;20083;-59
2022/07/05 11:18:52;;;;;;;5.43;1.90;;;23.00;57.70;;;;;;5033139;28;20069;-58
2022/07/05 11:21:18;;;;;;;5.90;2.00;;;23.00;57.80;;;;;;5033632;28;20033;-59
2022/07/05 11:23:44;;;;;;;5.47;1.70;;;23.00;57.90;;;;;;5033829;28;20129;-59
2022/07/05 11:26:11;;;;;;;4.82;1.73;;;23.00;58.00;;;;;;5034566;28;20136;-59
2022/07/05 11:28:47;;;;;;;3.15;1.42;;;23.00;58.00;;;;;;5033396;28;20052;-57
2022/07/05 11:31:13;;;;;;;4.05;1.70;;;23.10;58.10;;;;;;5033920;28;20048;-58
2022/07/05 11:33:44;;;;;;;6.43;1.80;;;23.00;58.00;;;;;;5034585;28;20065;-58
2022/07/05 11:36:26;;;;;;;3.15;1.40;;;23.10;58.20;;;;;;5032531;28;20415;-58
2022/07/05 11:39:08;;;;;;;3.53;1.70;;;23.10;58.20;;;;;;4988219;28;20055;-58
2022/07/05 11:41:33;;;;;;;4.97;1.60;;;23.10;58.20;;;;;;5028276;28;20513;-58
2022/07/05 11:43:59;;;;;;;2.92;1.60;;;23.10;58.20;;;;;;5014322;28;20069;-58
2022/07/05 11:46:25;;;;;;;4.07;1.58;;;23.10;58.30;;;;;;5014807;28;20397;-58
2022/07/05 11:48:50;;;;;;;4.07;1.77;;;23.10;58.30;;;;;;5013659;28;20053;-57
2022/07/05 11:51:16;;;;;;;4.00;1.40;;;23.10;58.30;;;;;;5012996;28;20042;-57
2022/07/05 11:53:42;;;;;;;5.57;2.30;;;23.10;58.30;;;;;;5014650;28;20042;-57
2022/07/05 11:56:09;;;;;;;5.70;1.80;;;23.10;58.30;;;;;;5014998;28;20065;-57
2022/07/05 11:58:34;;;;;;;2.60;1.30;;;23.10;58.20;;;;;;5013201;28;20042;-57
2022/07/05 12:01:01;;;;;;;2.20;1.40;;;23.10;58.00;;;;;;5014844;28;20100;-57
2022/07/05 12:03:27;;;;;;;5.85;1.42;;;23.10;58.10;;;;;;5014888;28;20122;-56
2022/07/05 12:05:52;;;;;;;4.55;1.90;;;23.10;58.00;;;;;;5013998;28;20521;-57
2022/07/05 12:08:24;;;;;;;3.70;1.45;;;23.20;58.00;;;;;;5014928;28;20042;-57
2022/07/05 12:13:47;;;;;;;4.45;1.58;;;23.20;57.80;;;;;;5014226;28;20042;-57
2022/07/05 12:16:13;;;;;;;5.13;1.70;;;23.20;57.80;;;;;;5014377;28;20490;-57
2022/07/05 12:18:54;;;;;;;2.97;1.38;;;23.20;57.70;;;;;;5013325;28;20083;-57
2022/07/05 12:21:20;;;;;;;3.60;1.30;;;23.20;57.80;;;;;;5014448;28;20042;-57
2022/07/05 12:23:46;;;;;;;3.88;1.67;;;23.20;57.80;;;;;;5020925;28;20044;-58
2022/07/05 12:26:15;;;;;;;4.00;1.20;;;23.20;57.80;;;;;;5033393;28;20057;-58
2022/07/05 12:28:41;;;;;;;3.20;1.42;;;23.20;57.90;;;;;;5032857;28;20050;-57
2022/07/05 12:31:16;;;;;;;5.45;1.40;;;23.20;57.90;;;;;;5034443;28;20040;-57
2022/07/05 12:33:41;;;;;;;4.85;1.65;;;23.20;57.80;;;;;;5033246;28;20042;-57
2022/07/05 12:36:14;;;;;;;5.55;1.50;;;23.20;57.80;;;;;;5032866;28;20033;-58
2022/07/05 12:38:40;;;;;;;6.07;1.25;;;23.20;57.70;;;;;;5033638;28;20478;-58
2022/07/05 12:41:05;;;;;;;2.33;1.30;;;23.20;57.70;;;;;;5033587;28;20037;-58
2022/07/05 12:43:32;;;;;;;3.78;1.63;;;23.20;57.80;;;;;;5033151;28;20049;-58
2022/07/05 12:46:07;;;;;;;3.35;1.08;;;23.20;58.00;;;;;;5033324;28;20038;-58
2022/07/05 12:48:33;;;;;;;3.10;1.08;;;23.20;58.00;;;;;;5033094;28;20539;-58
2022/07/05 12:50:59;;;;;;;2.83;1.30;;;23.20;57.90;;;;;;5033559;28;20045;-58
2022/07/05 12:58:57;;;;;;;3.22;1.15;;;23.30;58.00;;;;;;5033494;28;20041;-58
2022/07/05 13:01:37;;;;;;;2.75;1.00;;;23.30;58.10;;;;;;5032987;28;20107;-58
2022/07/05 13:04:08;;;;;;;2.58;1.10;;;23.30;58.10;;;;;;5033205;28;20060;-58